sensor_id;sensor_type;location;lat;lon;timestamp;P1;durP1;ratioP1;P2;durP2;ratioP2
41141;SDS011;63666;52.284;20.890;2023-02-01T00:02:08;5.10;;;2.70;;
41141;SDS011;63666;52.284;20.890;2023-02-01T00:04:42;4.90;;;2.90;;
41141;SDS011;63666;52.284;20.890;2023-02-01T00:07:20;5.00;;;2.40;;
41141;SDS011;63666;52.284;20.890;2023-02-01T00:09:54;5.00;;;2.80;;
41141;SDS011;63666;52.284;20.890;2023-02-01T00:12:28;5.40;;;2.70;;
41141;SDS011;63666;52.284;20.890;2023-02-01T00:15:03;5.30;;;2.60;;
41141;SDS011;63666;52.284;20.890;2023-02-01T00:17:38;4.70;;;2.30;;
41141;SDS011;63666;52.284;20.890;2023-02-01T00:20:15;5.00;;;2.30;;
41141;SDS011;63666;52.284;20.890;2023-02-01T00:22:50;4.50;;;2.20;;
41141;SDS011;63666;52.284;20.890;2023-02-01T00:25:24;4.80;;;2.50;;
41141;SDS011;63666;52.284;20.890;2023-02-01T00:28:01;4.90;;;2.40;;
41141;SDS011;63666;52.284;20.890;2023-02-01T00:30:35;5.50;;;2.70;;
41141;SDS011;63666;52.284;20.890;2023-02-01T00:33:09;4.20;;;2.10;;
41141;SDS011;63666;52.284;20.890;2023-02-01T00:35:44;5.60;;;2.20;;
41141;SDS011;63666;52.284;20.890;2023-02-01T00:38:21;4.40;;;2.10;;
41141;SDS011;63666;52.284;20.890;2023-02-01T00:41:01;4.50;;;2.20;;
41141;SDS011;63666;52.284;20.890;2023-02-01T00:43:51;4.00;;;2.00;;
41141;SDS011;63666;52.284;20.890;2023-02-01T00:46:28;4.10;;;1.90;;
41141;SDS011;63666;52.284;20.890;2023-02-01T00:49:03;4.70;;;1.90;;
41141;SDS011;63666;52.284;20.890;2023-02-01T00:51:40;4.40;;;1.90;;
41141;SDS011;63666;52.284;20.890;2023-02-01T00:54:14;4.10;;;1.70;;
41141;SDS011;63666;52.284;20.890;2023-02-01T00:56:51;4.20;;;1.80;;
41141;SDS011;63666;52.284;20.890;2023-02-01T00:59:27;3.90;;;1.60;;
41141;SDS011;63666;52.284;20.890;2023-02-01T01:02:01;4.80;;;1.60;;
41141;SDS011;63666;52.284;20.890;2023-02-01T01:04:35;3.70;;;1.70;;
41141;SDS011;63666;52.284;20.890;2023-02-01T01:07:10;3.70;;;1.60;;
41141;SDS011;63666;52.284;20.890;2023-02-01T01:09:44;3.80;;;1.70;;
41141;SDS011;63666;52.284;20.890;2023-02-01T01:12:19;3.40;;;1.40;;
41141;SDS011;63666;52.284;20.890;2023-02-01T01:14:53;3.40;;;1.50;;
41141;SDS011;63666;52.284;20.890;2023-02-01T01:17:28;3.90;;;1.60;;
41141;SDS011;63666;52.284;20.890;2023-02-01T01:20:09;3.40;;;1.40;;
41141;SDS011;63666;52.284;20.890;2023-02-01T01:22:44;3.80;;;1.40;;
41141;SDS011;63666;52.284;20.890;2023-02-01T01:25:19;3.40;;;1.30;;
41141;SDS011;63666;52.284;20.890;2023-02-01T01:27:54;3.50;;;1.20;;
41141;SDS011;63666;52.284;20.890;2023-02-01T01:30:28;2.80;;;1.20;;
41141;SDS011;63666;52.284;20.890;2023-02-01T01:33:05;2.90;;;1.20;;
41141;SDS011;63666;52.284;20.890;2023-02-01T01:35:41;3.30;;;1.30;;
41141;SDS011;63666;52.284;20.890;2023-02-01T01:38:19;3.30;;;1.30;;
41141;SDS011;63666;52.284;20.890;2023-02-01T01:40:54;2.90;;;1.10;;
41141;SDS011;63666;52.284;20.890;2023-02-01T01:43:50;2.80;;;1.10;;
41141;SDS011;63666;52.284;20.890;2023-02-01T01:46:27;3.40;;;1.40;;
41141;SDS011;63666;52.284;20.890;2023-02-01T01:49:07;3.70;;;1.30;;
41141;SDS011;63666;52.284;20.890;2023-02-01T01:51:49;2.80;;;1.20;;
41141;SDS011;63666;52.284;20.890;2023-02-01T01:54:27;3.70;;;1.40;;
41141;SDS011;63666;52.284;20.890;2023-02-01T01:57:08;3.20;;;1.10;;
41141;SDS011;63666;52.284;20.890;2023-02-01T01:59:48;2.70;;;1.00;;
41141;SDS011;63666;52.284;20.890;2023-02-01T02:02:25;2.90;;;1.00;;
41141;SDS011;63666;52.284;20.890;2023-02-01T02:05:04;2.80;;;1.30;;
41141;SDS011;63666;52.284;20.890;2023-02-01T02:07:41;3.10;;;1.00;;
41141;SDS011;63666;52.284;20.890;2023-02-01T02:10:18;2.70;;;1.00;;
41141;SDS011;63666;52.284;20.890;2023-02-01T02:13:20;2.90;;;1.00;;
41141;SDS011;63666;52.284;20.890;2023-02-01T02:16:02;3.30;;;1.30;;
41141;SDS011;63666;52.284;20.890;2023-02-01T02:18:47;3.70;;;1.00;;
41141;SDS011;63666;52.284;20.890;2023-02-01T02:21:41;3.70;;;1.20;;
41141;SDS011;63666;52.284;20.890;2023-02-01T02:24:45;3.30;;;1.00;;
41141;SDS011;63666;52.284;20.890;2023-02-01T02:27:42;3.00;;;1.10;;
41141;SDS011;63666;52.284;20.890;2023-02-01T02:30:40;3.20;;;1.10;;
41141;SDS011;63666;52.284;20.890;2023-02-01T02:33:53;3.50;;;1.10;;
41141;SDS011;63666;52.284;20.890;2023-02-01T02:36:51;3.50;;;1.10;;
41141;SDS011;63666;52.284;20.890;2023-02-01T02:39:44;3.40;;;1.10;;
41141;SDS011;63666;52.284;20.890;2023-02-01T02:42:27;3.00;;;1.10;;
41141;SDS011;63666;52.284;20.890;2023-02-01T02:45:28;2.70;;;1.00;;
41141;SDS011;63666;52.284;20.890;2023-02-01T02:48:44;3.90;;;1.00;;
41141;SDS011;63666;52.284;20.890;2023-02-01T02:51:27;3.40;;;1.20;;
41141;SDS011;63666;52.284;20.890;2023-02-01T02:54:25;3.00;;;1.00;;
41141;SDS011;63666;52.284;20.890;2023-02-01T02:57:26;3.60;;;1.10;;
41141;SDS011;63666;52.284;20.890;2023-02-01T03:00:24;3.20;;;1.00;;
41141;SDS011;63666;52.284;20.890;2023-02-01T03:03:18;2.90;;;1.00;;
41141;SDS011;63666;52.284;20.890;2023-02-01T03:06:14;3.10;;;1.00;;
41141;SDS011;63666;52.284;20.890;2023-02-01T03:08:54;3.50;;;1.00;;
41141;SDS011;63666;52.284;20.890;2023-02-01T03:11:31;2.80;;;1.10;;
41141;SDS011;63666;52.284;20.890;2023-02-01T03:14:23;3.00;;;1.10;;
41141;SDS011;63666;52.284;20.890;2023-02-01T03:17:03;4.40;;;1.20;;
41141;SDS011;63666;52.284;20.890;2023-02-01T03:19:45;3.40;;;1.20;;
41141;SDS011;63666;52.284;20.890;2023-02-01T03:22:26;3.50;;;1.10;;
41141;SDS011;63666;52.284;20.890;2023-02-01T03:28:10;3.00;;;1.00;;
41141;SDS011;63666;52.284;20.890;2023-02-01T03:30:45;3.30;;;1.00;;
41141;SDS011;63666;52.284;20.890;2023-02-01T03:33:25;3.50;;;1.10;;
41141;SDS011;63666;52.284;20.890;2023-02-01T03:36:06;3.60;;;1.20;;
41141;SDS011;63666;52.284;20.890;2023-02-01T03:38:52;3.70;;;1.30;;
41141;SDS011;63666;52.284;20.890;2023-02-01T03:41:37;3.60;;;1.00;;
41141;SDS011;63666;52.284;20.890;2023-02-01T03:44:16;3.40;;;1.10;;
41141;SDS011;63666;52.284;20.890;2023-02-01T03:46:54;3.40;;;1.00;;
41141;SDS011;63666;52.284;20.890;2023-02-01T03:49:34;3.50;;;1.10;;
41141;SDS011;63666;52.284;20.890;2023-02-01T03:52:13;3.40;;;1.00;;
41141;SDS011;63666;52.284;20.890;2023-02-01T03:54:50;3.90;;;1.20;;
41141;SDS011;63666;52.284;20.890;2023-02-01T03:57:31;3.90;;;1.10;;
41141;SDS011;63666;52.284;20.890;2023-02-01T04:00:13;3.70;;;1.30;;
41141;SDS011;63666;52.284;20.890;2023-02-01T04:02:54;3.10;;;1.10;;
41141;SDS011;63666;52.284;20.890;2023-02-01T04:05:30;4.50;;;1.20;;
41141;SDS011;63666;52.284;20.890;2023-02-01T04:08:05;3.20;;;1.00;;
41141;SDS011;63666;52.284;20.890;2023-02-01T04:10:49;4.10;;;1.10;;
41141;SDS011;63666;52.284;20.890;2023-02-01T04:13:40;4.00;;;1.10;;
41141;SDS011;63666;52.284;20.890;2023-02-01T04:16:14;3.70;;;1.10;;
41141;SDS011;63666;52.284;20.890;2023-02-01T04:18:49;2.70;;;1.00;;
41141;SDS011;63666;52.284;20.890;2023-02-01T04:21:21;2.90;;;0.90;;
41141;SDS011;63666;52.284;20.890;2023-02-01T04:23:58;3.10;;;1.00;;
41141;SDS011;63666;52.284;20.890;2023-02-01T04:26:32;3.40;;;1.10;;
41141;SDS011;63666;52.284;20.890;2023-02-01T04:29:07;3.80;;;1.00;;
41141;SDS011;63666;52.284;20.890;2023-02-01T04:31:46;4.40;;;1.20;;
41141;SDS011;63666;52.284;20.890;2023-02-01T04:34:23;4.00;;;1.30;;
41141;SDS011;63666;52.284;20.890;2023-02-01T04:36:59;3.60;;;1.20;;
41141;SDS011;63666;52.284;20.890;2023-02-01T04:39:40;3.80;;;1.00;;
41141;SDS011;63666;52.284;20.890;2023-02-01T04:42:15;3.90;;;1.10;;
41141;SDS011;63666;52.284;20.890;2023-02-01T04:44:49;3.50;;;1.20;;
41141;SDS011;63666;52.284;20.890;2023-02-01T04:47:28;3.60;;;1.10;;
41141;SDS011;63666;52.284;20.890;2023-02-01T04:50:09;3.40;;;1.00;;
41141;SDS011;63666;52.284;20.890;2023-02-01T04:52:45;4.60;;;1.20;;
41141;SDS011;63666;52.284;20.890;2023-02-01T04:55:20;4.50;;;1.30;;
41141;SDS011;63666;52.284;20.890;2023-02-01T04:57:57;4.40;;;1.20;;
41141;SDS011;63666;52.284;20.890;2023-02-01T05:00:36;3.40;;;1.20;;
41141;SDS011;63666;52.284;20.890;2023-02-01T05:03:11;4.00;;;1.20;;
41141;SDS011;63666;52.284;20.890;2023-02-01T05:05:45;4.20;;;1.20;;
41141;SDS011;63666;52.284;20.890;2023-02-01T05:08:24;4.30;;;1.30;;
41141;SDS011;63666;52.284;20.890;2023-02-01T05:11:00;4.10;;;1.00;;
41141;SDS011;63666;52.284;20.890;2023-02-01T05:13:39;3.50;;;1.20;;
41141;SDS011;63666;52.284;20.890;2023-02-01T05:16:24;4.40;;;1.20;;
41141;SDS011;63666;52.284;20.890;2023-02-01T05:19:00;4.40;;;1.30;;
41141;SDS011;63666;52.284;20.890;2023-02-01T05:21:36;4.20;;;1.20;;
41141;SDS011;63666;52.284;20.890;2023-02-01T05:24:13;4.90;;;1.20;;
41141;SDS011;63666;52.284;20.890;2023-02-01T05:26:50;4.10;;;1.20;;
41141;SDS011;63666;52.284;20.890;2023-02-01T05:29:25;4.60;;;1.10;;
41141;SDS011;63666;52.284;20.890;2023-02-01T05:32:08;4.40;;;1.20;;
41141;SDS011;63666;52.284;20.890;2023-02-01T05:34:52;4.20;;;1.30;;
41141;SDS011;63666;52.284;20.890;2023-02-01T05:37:26;4.60;;;1.20;;
41141;SDS011;63666;52.284;20.890;2023-02-01T05:40:04;4.20;;;1.10;;
41141;SDS011;63666;52.284;20.890;2023-02-01T05:42:42;5.50;;;1.30;;
41141;SDS011;63666;52.284;20.890;2023-02-01T05:45:16;4.80;;;1.20;;
41141;SDS011;63666;52.284;20.890;2023-02-01T05:47:51;5.00;;;1.40;;
41141;SDS011;63666;52.284;20.890;2023-02-01T05:50:27;5.10;;;1.40;;
41141;SDS011;63666;52.284;20.890;2023-02-01T05:53:01;4.10;;;1.20;;
41141;SDS011;63666;52.284;20.890;2023-02-01T05:55:39;4.70;;;1.30;;
41141;SDS011;63666;52.284;20.890;2023-02-01T05:58:15;4.80;;;1.40;;
41141;SDS011;63666;52.284;20.890;2023-02-01T06:00:49;5.30;;;1.30;;
41141;SDS011;63666;52.284;20.890;2023-02-01T06:03:25;5.70;;;1.60;;
41141;SDS011;63666;52.284;20.890;2023-02-01T06:06:04;5.20;;;1.50;;
41141;SDS011;63666;52.284;20.890;2023-02-01T06:08:41;4.00;;;1.10;;
41141;SDS011;63666;52.284;20.890;2023-02-01T06:11:15;5.10;;;1.50;;
41141;SDS011;63666;52.284;20.890;2023-02-01T06:14:03;5.30;;;1.40;;
41141;SDS011;63666;52.284;20.890;2023-02-01T06:16:38;4.30;;;1.20;;
41141;SDS011;63666;52.284;20.890;2023-02-01T06:19:12;5.20;;;1.50;;
41141;SDS011;63666;52.284;20.890;2023-02-01T06:21:47;4.00;;;1.30;;
41141;SDS011;63666;52.284;20.890;2023-02-01T06:24:23;4.50;;;1.30;;
41141;SDS011;63666;52.284;20.890;2023-02-01T06:27:00;4.60;;;1.10;;
41141;SDS011;63666;52.284;20.890;2023-02-01T06:29:39;4.40;;;1.30;;
41141;SDS011;63666;52.284;20.890;2023-02-01T06:32:12;4.40;;;1.30;;
41141;SDS011;63666;52.284;20.890;2023-02-01T06:34:50;5.00;;;1.30;;
41141;SDS011;63666;52.284;20.890;2023-02-01T06:37:27;4.90;;;1.30;;
41141;SDS011;63666;52.284;20.890;2023-02-01T06:40:01;4.30;;;1.30;;
41141;SDS011;63666;52.284;20.890;2023-02-01T06:42:37;3.80;;;1.30;;
41141;SDS011;63666;52.284;20.890;2023-02-01T06:45:12;5.80;;;1.40;;
41141;SDS011;63666;52.284;20.890;2023-02-01T06:47:48;4.50;;;1.30;;
41141;SDS011;63666;52.284;20.890;2023-02-01T06:50:23;4.50;;;1.30;;
41141;SDS011;63666;52.284;20.890;2023-02-01T06:52:58;4.10;;;1.30;;
41141;SDS011;63666;52.284;20.890;2023-02-01T06:55:32;3.70;;;1.20;;
41141;SDS011;63666;52.284;20.890;2023-02-01T06:58:06;4.10;;;1.30;;
41141;SDS011;63666;52.284;20.890;2023-02-01T07:00:40;3.50;;;1.10;;
41141;SDS011;63666;52.284;20.890;2023-02-01T07:03:17;5.10;;;1.50;;
41141;SDS011;63666;52.284;20.890;2023-02-01T07:05:56;3.80;;;1.10;;
41141;SDS011;63666;52.284;20.890;2023-02-01T07:08:32;4.10;;;1.30;;
41141;SDS011;63666;52.284;20.890;2023-02-01T07:11:10;4.30;;;1.30;;
41141;SDS011;63666;52.284;20.890;2023-02-01T07:13:46;4.70;;;1.30;;
41141;SDS011;63666;52.284;20.890;2023-02-01T07:16:20;5.40;;;1.30;;
41141;SDS011;63666;52.284;20.890;2023-02-01T07:18:54;3.80;;;1.30;;
41141;SDS011;63666;52.284;20.890;2023-02-01T07:21:30;4.40;;;1.30;;
41141;SDS011;63666;52.284;20.890;2023-02-01T07:24:05;4.50;;;1.30;;
41141;SDS011;63666;52.284;20.890;2023-02-01T07:26:39;3.70;;;1.20;;
41141;SDS011;63666;52.284;20.890;2023-02-01T07:29:13;3.80;;;1.10;;
41141;SDS011;63666;52.284;20.890;2023-02-01T07:31:47;4.60;;;1.60;;
41141;SDS011;63666;52.284;20.890;2023-02-01T07:34:22;4.30;;;1.10;;
41141;SDS011;63666;52.284;20.890;2023-02-01T07:36:56;4.20;;;1.20;;
41141;SDS011;63666;52.284;20.890;2023-02-01T07:39:30;4.10;;;1.30;;
41141;SDS011;63666;52.284;20.890;2023-02-01T07:42:04;4.30;;;1.20;;
41141;SDS011;63666;52.284;20.890;2023-02-01T07:44:39;4.60;;;1.50;;
41141;SDS011;63666;52.284;20.890;2023-02-01T07:47:13;5.70;;;1.40;;
41141;SDS011;63666;52.284;20.890;2023-02-01T07:49:47;5.80;;;1.60;;
41141;SDS011;63666;52.284;20.890;2023-02-01T07:52:23;5.90;;;1.60;;
41141;SDS011;63666;52.284;20.890;2023-02-01T07:54:57;5.50;;;1.50;;
41141;SDS011;63666;52.284;20.890;2023-02-01T07:57:31;4.80;;;1.20;;
41141;SDS011;63666;52.284;20.890;2023-02-01T08:00:08;4.80;;;1.30;;
41141;SDS011;63666;52.284;20.890;2023-02-01T08:03:03;4.60;;;1.50;;
41141;SDS011;63666;52.284;20.890;2023-02-01T08:05:37;4.70;;;1.30;;
41141;SDS011;63666;52.284;20.890;2023-02-01T08:08:11;4.70;;;1.50;;
41141;SDS011;63666;52.284;20.890;2023-02-01T08:10:46;5.30;;;1.50;;
41141;SDS011;63666;52.284;20.890;2023-02-01T08:13:22;4.90;;;1.50;;
41141;SDS011;63666;52.284;20.890;2023-02-01T08:16:00;4.80;;;1.50;;
41141;SDS011;63666;52.284;20.890;2023-02-01T08:18:36;6.30;;;1.80;;
41141;SDS011;63666;52.284;20.890;2023-02-01T08:21:34;5.50;;;1.50;;
41141;SDS011;63666;52.284;20.890;2023-02-01T08:24:13;5.90;;;1.60;;
41141;SDS011;63666;52.284;20.890;2023-02-01T08:26:49;5.90;;;1.80;;
41141;SDS011;63666;52.284;20.890;2023-02-01T08:29:23;4.80;;;1.60;;
41141;SDS011;63666;52.284;20.890;2023-02-01T08:31:58;5.70;;;2.00;;
41141;SDS011;63666;52.284;20.890;2023-02-01T08:34:32;5.10;;;1.60;;
41141;SDS011;63666;52.284;20.890;2023-02-01T08:37:06;5.40;;;1.70;;
41141;SDS011;63666;52.284;20.890;2023-02-01T08:39:42;5.50;;;1.70;;
41141;SDS011;63666;52.284;20.890;2023-02-01T08:42:18;4.80;;;1.40;;
41141;SDS011;63666;52.284;20.890;2023-02-01T08:45:11;4.40;;;1.40;;
41141;SDS011;63666;52.284;20.890;2023-02-01T08:47:46;5.70;;;1.70;;
41141;SDS011;63666;52.284;20.890;2023-02-01T08:50:24;6.50;;;1.70;;
41141;SDS011;63666;52.284;20.890;2023-02-01T08:52:59;4.70;;;1.60;;
41141;SDS011;63666;52.284;20.890;2023-02-01T08:55:34;5.00;;;1.60;;
41141;SDS011;63666;52.284;20.890;2023-02-01T08:58:11;6.40;;;1.80;;
41141;SDS011;63666;52.284;20.890;2023-02-01T09:00:48;4.70;;;1.60;;
41141;SDS011;63666;52.284;20.890;2023-02-01T09:03:23;4.70;;;1.60;;
41141;SDS011;63666;52.284;20.890;2023-02-01T09:06:02;5.20;;;1.80;;
41141;SDS011;63666;52.284;20.890;2023-02-01T09:08:39;5.10;;;1.70;;
41141;SDS011;63666;52.284;20.890;2023-02-01T09:11:21;4.70;;;1.50;;
41141;SDS011;63666;52.284;20.890;2023-02-01T09:14:02;5.10;;;1.60;;
41141;SDS011;63666;52.284;20.890;2023-02-01T09:16:37;5.00;;;1.80;;
41141;SDS011;63666;52.284;20.890;2023-02-01T09:19:11;5.10;;;1.80;;
41141;SDS011;63666;52.284;20.890;2023-02-01T09:22:01;5.60;;;1.60;;
41141;SDS011;63666;52.284;20.890;2023-02-01T09:24:41;5.80;;;1.70;;
41141;SDS011;63666;52.284;20.890;2023-02-01T09:27:17;5.60;;;1.80;;
41141;SDS011;63666;52.284;20.890;2023-02-01T09:29:56;4.60;;;1.70;;
41141;SDS011;63666;52.284;20.890;2023-02-01T09:32:37;4.70;;;1.50;;
41141;SDS011;63666;52.284;20.890;2023-02-01T09:35:19;4.70;;;1.50;;
41141;SDS011;63666;52.284;20.890;2023-02-01T09:37:53;5.10;;;1.80;;
41141;SDS011;63666;52.284;20.890;2023-02-01T09:40:30;4.80;;;1.50;;
41141;SDS011;63666;52.284;20.890;2023-02-01T09:43:16;4.80;;;1.60;;
41141;SDS011;63666;52.284;20.890;2023-02-01T09:46:06;4.60;;;1.80;;
41141;SDS011;63666;52.284;20.890;2023-02-01T09:48:55;4.30;;;1.40;;
41141;SDS011;63666;52.284;20.890;2023-02-01T09:51:35;5.20;;;2.00;;
41141;SDS011;63666;52.284;20.890;2023-02-01T09:54:19;4.50;;;1.60;;
41141;SDS011;63666;52.284;20.890;2023-02-01T09:56:58;4.30;;;1.60;;
41141;SDS011;63666;52.284;20.890;2023-02-01T09:59:40;5.00;;;1.50;;
41141;SDS011;63666;52.284;20.890;2023-02-01T10:02:19;4.90;;;1.60;;
41141;SDS011;63666;52.284;20.890;2023-02-01T10:05:01;4.70;;;1.70;;
41141;SDS011;63666;52.284;20.890;2023-02-01T10:07:49;4.40;;;1.50;;
41141;SDS011;63666;52.284;20.890;2023-02-01T10:10:30;5.20;;;1.60;;
41141;SDS011;63666;52.284;20.890;2023-02-01T10:13:19;5.30;;;1.50;;
41141;SDS011;63666;52.284;20.890;2023-02-01T10:16:19;5.40;;;1.70;;
41141;SDS011;63666;52.284;20.890;2023-02-01T10:19:23;5.10;;;1.50;;
41141;SDS011;63666;52.284;20.890;2023-02-01T10:22:06;5.30;;;1.60;;
41141;SDS011;63666;52.284;20.890;2023-02-01T10:24:48;4.40;;;1.60;;
41141;SDS011;63666;52.284;20.890;2023-02-01T10:27:33;5.10;;;1.70;;
41141;SDS011;63666;52.284;20.890;2023-02-01T10:30:20;4.80;;;1.50;;
41141;SDS011;63666;52.284;20.890;2023-02-01T10:33:12;4.90;;;2.00;;
41141;SDS011;63666;52.284;20.890;2023-02-01T10:35:52;5.10;;;1.80;;
41141;SDS011;63666;52.284;20.890;2023-02-01T10:38:31;4.70;;;1.60;;
41141;SDS011;63666;52.284;20.890;2023-02-01T10:41:15;5.40;;;1.80;;
41141;SDS011;63666;52.284;20.890;2023-02-01T10:44:02;5.40;;;1.90;;
41141;SDS011;63666;52.284;20.890;2023-02-01T10:46:40;5.60;;;1.90;;
41141;SDS011;63666;52.284;20.890;2023-02-01T10:49:24;5.70;;;1.60;;
41141;SDS011;63666;52.284;20.890;2023-02-01T10:52:14;4.90;;;1.50;;
41141;SDS011;63666;52.284;20.890;2023-02-01T10:54:54;5.00;;;1.80;;
41141;SDS011;63666;52.284;20.890;2023-02-01T10:57:29;4.70;;;1.80;;
41141;SDS011;63666;52.284;20.890;2023-02-01T11:00:20;5.40;;;1.70;;
41141;SDS011;63666;52.284;20.890;2023-02-01T11:03:00;5.60;;;1.80;;
41141;SDS011;63666;52.284;20.890;2023-02-01T11:05:46;4.40;;;1.50;;
41141;SDS011;63666;52.284;20.890;2023-02-01T11:08:22;4.80;;;1.60;;
41141;SDS011;63666;52.284;20.890;2023-02-01T11:11:01;5.10;;;1.80;;
41141;SDS011;63666;52.284;20.890;2023-02-01T11:13:39;4.60;;;1.80;;
41141;SDS011;63666;52.284;20.890;2023-02-01T11:16:15;4.50;;;1.50;;
41141;SDS011;63666;52.284;20.890;2023-02-01T11:18:54;5.00;;;1.70;;
41141;SDS011;63666;52.284;20.890;2023-02-01T11:21:29;4.70;;;1.60;;
41141;SDS011;63666;52.284;20.890;2023-02-01T11:27:01;4.60;;;1.50;;
41141;SDS011;63666;52.284;20.890;2023-02-01T11:30:04;4.40;;;1.50;;
41141;SDS011;63666;52.284;20.890;2023-02-01T11:32:50;5.10;;;1.70;;
41141;SDS011;63666;52.284;20.890;2023-02-01T11:35:32;5.30;;;1.70;;
41141;SDS011;63666;52.284;20.890;2023-02-01T11:38:21;4.50;;;1.60;;
41141;SDS011;63666;52.284;20.890;2023-02-01T11:41:20;4.10;;;1.60;;
41141;SDS011;63666;52.284;20.890;2023-02-01T11:44:00;4.90;;;1.70;;
41141;SDS011;63666;52.284;20.890;2023-02-01T11:46:49;5.10;;;1.70;;
41141;SDS011;63666;52.284;20.890;2023-02-01T11:49:31;5.10;;;1.80;;
41141;SDS011;63666;52.284;20.890;2023-02-01T11:52:12;4.40;;;1.60;;
41141;SDS011;63666;52.284;20.890;2023-02-01T11:55:17;5.70;;;2.00;;
41141;SDS011;63666;52.284;20.890;2023-02-01T11:58:22;5.00;;;1.80;;
41141;SDS011;63666;52.284;20.890;2023-02-01T12:01:21;3.80;;;1.50;;
41141;SDS011;63666;52.284;20.890;2023-02-01T12:04:37;4.60;;;1.60;;
41141;SDS011;63666;52.284;20.890;2023-02-01T12:07:24;4.80;;;1.70;;
41141;SDS011;63666;52.284;20.890;2023-02-01T12:10:20;4.00;;;1.60;;
41141;SDS011;63666;52.284;20.890;2023-02-01T12:13:13;4.00;;;1.50;;
41141;SDS011;63666;52.284;20.890;2023-02-01T12:16:18;5.20;;;1.60;;
41141;SDS011;63666;52.284;20.890;2023-02-01T12:19:21;4.90;;;1.90;;
41141;SDS011;63666;52.284;20.890;2023-02-01T12:22:18;5.00;;;1.70;;
41141;SDS011;63666;52.284;20.890;2023-02-01T12:25:24;5.40;;;1.90;;
41141;SDS011;63666;52.284;20.890;2023-02-01T12:28:19;5.10;;;1.80;;
41141;SDS011;63666;52.284;20.890;2023-02-01T12:31:19;5.40;;;2.00;;
41141;SDS011;63666;52.284;20.890;2023-02-01T12:37:33;4.90;;;1.80;;
41141;SDS011;63666;52.284;20.890;2023-02-01T12:40:25;5.30;;;1.80;;
41141;SDS011;63666;52.284;20.890;2023-02-01T12:43:09;5.20;;;1.90;;
41141;SDS011;63666;52.284;20.890;2023-02-01T12:45:55;4.90;;;1.90;;
41141;SDS011;63666;52.284;20.890;2023-02-01T12:48:36;5.40;;;1.80;;
41141;SDS011;63666;52.284;20.890;2023-02-01T12:51:19;5.90;;;2.10;;
41141;SDS011;63666;52.284;20.890;2023-02-01T12:54:02;6.10;;;2.10;;
41141;SDS011;63666;52.284;20.890;2023-02-01T12:56:44;5.40;;;1.90;;
41141;SDS011;63666;52.284;20.890;2023-02-01T12:59:28;5.50;;;1.90;;
41141;SDS011;63666;52.284;20.890;2023-02-01T13:02:22;5.50;;;2.00;;
41141;SDS011;63666;52.284;20.890;2023-02-01T13:05:20;5.50;;;1.80;;
41141;SDS011;63666;52.284;20.890;2023-02-01T13:08:00;4.90;;;1.80;;
41141;SDS011;63666;52.284;20.890;2023-02-01T13:10:42;5.20;;;2.20;;
41141;SDS011;63666;52.284;20.890;2023-02-01T13:13:25;6.20;;;2.10;;
41141;SDS011;63666;52.284;20.890;2023-02-01T13:16:12;5.00;;;1.90;;
41141;SDS011;63666;52.284;20.890;2023-02-01T13:18:50;5.70;;;2.00;;
41141;SDS011;63666;52.284;20.890;2023-02-01T13:21:33;5.00;;;1.90;;
41141;SDS011;63666;52.284;20.890;2023-02-01T13:24:28;5.60;;;1.90;;
41141;SDS011;63666;52.284;20.890;2023-02-01T13:29:50;4.70;;;1.80;;
41141;SDS011;63666;52.284;20.890;2023-02-01T13:33:05;5.00;;;1.80;;
41141;SDS011;63666;52.284;20.890;2023-02-01T13:39:47;5.00;;;2.00;;
41141;SDS011;63666;52.284;20.890;2023-02-01T13:42:30;5.20;;;1.90;;
41141;SDS011;63666;52.284;20.890;2023-02-01T13:45:15;5.10;;;1.70;;
41141;SDS011;63666;52.284;20.890;2023-02-01T13:47:56;5.00;;;1.70;;
41141;SDS011;63666;52.284;20.890;2023-02-01T13:50:38;4.60;;;1.70;;
41141;SDS011;63666;52.284;20.890;2023-02-01T13:53:20;5.30;;;2.00;;
41141;SDS011;63666;52.284;20.890;2023-02-01T13:56:06;5.10;;;1.90;;
41141;SDS011;63666;52.284;20.890;2023-02-01T13:58:47;4.70;;;1.70;;
41141;SDS011;63666;52.284;20.890;2023-02-01T14:01:38;4.90;;;1.70;;
41141;SDS011;63666;52.284;20.890;2023-02-01T14:04:51;4.30;;;1.70;;
41141;SDS011;63666;52.284;20.890;2023-02-01T14:07:32;4.90;;;1.90;;
41141;SDS011;63666;52.284;20.890;2023-02-01T14:13:29;4.90;;;1.70;;
41141;SDS011;63666;52.284;20.890;2023-02-01T14:16:16;4.80;;;2.00;;
41141;SDS011;63666;52.284;20.890;2023-02-01T14:19:19;4.50;;;1.90;;
41141;SDS011;63666;52.284;20.890;2023-02-01T14:22:35;5.00;;;1.80;;
41141;SDS011;63666;52.284;20.890;2023-02-01T14:25:18;4.70;;;1.80;;
41141;SDS011;63666;52.284;20.890;2023-02-01T14:28:12;5.30;;;2.00;;
41141;SDS011;63666;52.284;20.890;2023-02-01T14:30:55;4.70;;;2.00;;
41141;SDS011;63666;52.284;20.890;2023-02-01T14:33:33;4.40;;;1.60;;
41141;SDS011;63666;52.284;20.890;2023-02-01T14:36:10;5.20;;;2.00;;
41141;SDS011;63666;52.284;20.890;2023-02-01T14:38:51;4.50;;;1.70;;
41141;SDS011;63666;52.284;20.890;2023-02-01T14:41:32;5.00;;;1.80;;
41141;SDS011;63666;52.284;20.890;2023-02-01T14:44:25;5.30;;;2.00;;
41141;SDS011;63666;52.284;20.890;2023-02-01T14:50:34;4.90;;;1.90;;
41141;SDS011;63666;52.284;20.890;2023-02-01T14:53:32;4.30;;;1.70;;
41141;SDS011;63666;52.284;20.890;2023-02-01T14:56:13;4.60;;;1.70;;
41141;SDS011;63666;52.284;20.890;2023-02-01T14:58:56;4.50;;;1.70;;
41141;SDS011;63666;52.284;20.890;2023-02-01T15:01:35;4.60;;;1.90;;
41141;SDS011;63666;52.284;20.890;2023-02-01T15:04:12;4.50;;;1.90;;
41141;SDS011;63666;52.284;20.890;2023-02-01T15:06:45;4.60;;;1.70;;
41141;SDS011;63666;52.284;20.890;2023-02-01T15:09:21;5.40;;;2.10;;
41141;SDS011;63666;52.284;20.890;2023-02-01T15:12:00;4.40;;;1.80;;
41141;SDS011;63666;52.284;20.890;2023-02-01T15:14:33;5.50;;;1.80;;
41141;SDS011;63666;52.284;20.890;2023-02-01T15:17:18;4.00;;;1.60;;
41141;SDS011;63666;52.284;20.890;2023-02-01T15:19:55;4.60;;;1.80;;
41141;SDS011;63666;52.284;20.890;2023-02-01T15:22:31;4.10;;;1.70;;
41141;SDS011;63666;52.284;20.890;2023-02-01T15:25:02;4.10;;;1.50;;
41141;SDS011;63666;52.284;20.890;2023-02-01T15:27:37;3.80;;;1.60;;
41141;SDS011;63666;52.284;20.890;2023-02-01T15:30:16;5.30;;;1.80;;
41141;SDS011;63666;52.284;20.890;2023-02-01T15:32:47;4.20;;;1.60;;
41141;SDS011;63666;52.284;20.890;2023-02-01T15:35:40;3.90;;;1.50;;
41141;SDS011;63666;52.284;20.890;2023-02-01T15:38:39;4.20;;;1.80;;
41141;SDS011;63666;52.284;20.890;2023-02-01T15:41:13;4.30;;;1.60;;
41141;SDS011;63666;52.284;20.890;2023-02-01T15:43:47;4.40;;;1.70;;
41141;SDS011;63666;52.284;20.890;2023-02-01T15:46:35;3.80;;;1.60;;
41141;SDS011;63666;52.284;20.890;2023-02-01T15:49:18;4.10;;;1.70;;
41141;SDS011;63666;52.284;20.890;2023-02-01T15:51:54;4.70;;;1.70;;
41141;SDS011;63666;52.284;20.890;2023-02-01T15:54:30;4.20;;;1.50;;
41141;SDS011;63666;52.284;20.890;2023-02-01T15:57:08;4.30;;;1.90;;
41141;SDS011;63666;52.284;20.890;2023-02-01T15:59:42;4.30;;;1.70;;
41141;SDS011;63666;52.284;20.890;2023-02-01T16:02:27;4.30;;;1.80;;
41141;SDS011;63666;52.284;20.890;2023-02-01T16:05:05;4.40;;;1.60;;
41141;SDS011;63666;52.284;20.890;2023-02-01T16:07:56;4.60;;;1.70;;
41141;SDS011;63666;52.284;20.890;2023-02-01T16:10:37;4.40;;;1.70;;
41141;SDS011;63666;52.284;20.890;2023-02-01T16:13:09;4.30;;;1.60;;
41141;SDS011;63666;52.284;20.890;2023-02-01T16:15:41;4.40;;;1.70;;
41141;SDS011;63666;52.284;20.890;2023-02-01T16:18:15;5.00;;;1.80;;
41141;SDS011;63666;52.284;20.890;2023-02-01T16:20:48;4.40;;;2.00;;